Time;durP1;ratioP1;P1;durP2;ratioP2;P2;SDS_P1;SDS_P2;PMS_P1;PMS_P2;Temp;Humidity;BMP_temperature;BMP_pressure;BME280_temperature;BME280_humidity;BME280_pressure;Samples;Min_cycle;Max_cycle;Signal;HPM_P1;HPM_P2
2021/12/30 00:00:45;;;;;;;13.50;4.10;;;;;;;;;;5058617;28;20482;-77
2021/12/30 00:03:13;;;;;;;26.13;5.03;;;;;;;;;;5086522;28;20498;-80
2021/12/30 00:05:41;;;;;;;27.13;5.23;;;;;;;;;;5071439;28;20447;-78
2021/12/30 00:08:08;;;;;;;18.30;6.30;;;;;;;;;;5072070;28;20898;-78
2021/12/30 00:10:36;;;;;;;30.90;6.00;;;;;;;;;;5088820;28;20467;-79
2021/12/30 00:13:03;;;;;;;20.07;5.27;;;;;;;;;;5084757;28;20466;-78
2021/12/30 00:15:38;;;;;;;19.87;4.60;;;;;;;;;;5059178;28;20486;-77
2021/12/30 00:18:06;;;;;;;18.27;5.07;;;;;;;;;;5086802;28;20787;-79
2021/12/30 00:20:33;;;;;;;16.30;4.77;;;;;;;;;;5093418;28;20979;-78
2021/12/30 00:23:04;;;;;;;18.80;6.50;;;;;;;;;;5091700;28;20483;-79
2021/12/30 00:25:38;;;;;;;20.70;5.80;;;;;;;;;;5092709;28;20455;-77
2021/12/30 00:28:05;;;;;;;30.67;5.60;;;;;;;;;;5093382;28;20463;-78
2021/12/30 00:30:34;;;;;;;21.73;7.27;;;;;;;;;;5061893;28;20483;-79
2021/12/30 00:33:01;;;;;;;22.13;5.70;;;;;;;;;;5083111;28;20442;-78
2021/12/30 00:35:29;;;;;;;20.83;6.00;;;;;;;;;;5092003;28;20975;-77
2021/12/30 00:37:56;;;;;;;19.03;6.40;;;;;;;;;;5092758;28;20532;-79
2021/12/30 00:40:24;;;;;;;26.00;7.00;;;;;;;;;;5092430;28;20463;-79
2021/12/30 00:42:51;;;;;;;25.70;6.67;;;;;;;;;;5092733;28;20476;-78
2021/12/30 00:45:18;;;;;;;20.83;5.20;;;;;;;;;;5089170;28;20982;-77
2021/12/30 00:47:46;;;;;;;18.67;5.50;;;;;;;;;;5073222;28;20468;-79
2021/12/30 00:50:14;;;;;;;19.90;5.90;;;;;;;;;;5077684;28;20489;-78
2021/12/30 00:52:41;;;;;;;21.50;5.90;;;;;;;;;;5093332;28;20967;-78
2021/12/30 00:55:12;;;;;;;26.47;5.40;;;;;;;;;;5091396;28;20473;-79
2021/12/30 00:57:41;;;;;;;28.80;5.90;;;;;;;;;;5091670;28;20455;-78
2021/12/30 01:00:10;;;;;;;22.80;6.07;;;;;;;;;;5092498;28;20563;-79
2021/12/30 01:02:37;;;;;;;23.80;6.20;;;;;;;;;;5092350;28;20497;-79
2021/12/30 01:05:06;;;;;;;17.47;5.33;;;;;;;;;;5094895;28;20949;-79
2021/12/30 01:07:34;;;;;;;10.87;4.57;;;;;;;;;;5092114;28;20779;-78
2021/12/30 01:10:01;;;;;;;21.27;5.40;;;;;;;;;;5060845;28;20488;-79
2021/12/30 01:12:28;;;;;;;16.63;5.77;;;;;;;;;;5075179;28;20467;-78
2021/12/30 01:14:56;;;;;;;19.57;4.70;;;;;;;;;;5055369;28;20440;-78
2021/12/30 01:17:28;;;;;;;14.37;4.40;;;;;;;;;;5078325;28;20979;-78
2021/12/30 01:19:55;;;;;;;19.40;4.90;;;;;;;;;;5083783;28;20475;-78
2021/12/30 01:22:25;;;;;;;14.50;4.03;;;;;;;;;;5092825;28;20984;-78
2021/12/30 01:24:52;;;;;;;17.20;4.77;;;;;;;;;;5074730;28;20436;-78
2021/12/30 01:27:20;;;;;;;18.83;4.63;;;;;;;;;;5081328;28;20477;-78
2021/12/30 01:29:48;;;;;;;14.20;3.93;;;;;;;;;;5093861;28;20470;-77
2021/12/30 01:32:15;;;;;;;11.37;4.40;;;;;;;;;;5080264;28;20443;-78
2021/12/30 01:34:43;;;;;;;17.40;3.80;;;;;;;;;;5058676;28;20448;-77
2021/12/30 01:37:10;;;;;;;16.80;4.70;;;;;;;;;;5070963;28;20919;-78
2021/12/30 01:39:39;;;;;;;14.80;4.37;;;;;;;;;;5072115;28;20490;-78
2021/12/30 01:42:08;;;;;;;22.23;4.70;;;;;;;;;;5080388;28;20455;-79
2021/12/30 01:44:35;;;;;;;17.83;4.17;;;;;;;;;;5074251;28;20779;-78
2021/12/30 01:47:03;;;;;;;12.67;5.27;;;;;;;;;;5083373;28;20596;-78
2021/12/30 01:49:31;;;;;;;13.60;4.17;;;;;;;;;;5079470;28;20440;-78
2021/12/30 01:51:58;;;;;;;17.07;4.87;;;;;;;;;;5090695;28;20447;-77
2021/12/30 01:54:26;;;;;;;15.90;3.87;;;;;;;;;;5089702;28;20463;-78
2021/12/30 01:56:55;;;;;;;9.37;3.47;;;;;;;;;;5074146;28;20487;-78
2021/12/30 01:59:24;;;;;;;13.43;3.73;;;;;;;;;;5091929;28;20443;-78
2021/12/30 02:01:56;;;;;;;18.73;5.10;;;;;;;;;;5091499;28;20465;-79
2021/12/30 02:04:23;;;;;;;10.57;3.70;;;;;;;;;;5079488;28;20482;-79
2021/12/30 02:06:50;;;;;;;13.07;3.83;;;;;;;;;;5078028;28;20459;-78
2021/12/30 02:09:19;;;;;;;16.67;4.30;;;;;;;;;;5070230;28;20444;-78
2021/12/30 02:11:46;;;;;;;16.17;4.40;;;;;;;;;;5062442;28;20494;-78
2021/12/30 02:14:15;;;;;;;14.33;4.37;;;;;;;;;;5090805;28;20436;-78
2021/12/30 02:16:43;;;;;;;14.07;3.97;;;;;;;;;;5089672;28;20451;-79
2021/12/30 02:19:10;;;;;;;11.50;4.13;;;;;;;;;;5070828;28;20475;-77
2021/12/30 02:21:39;;;;;;;6.07;3.80;;;;;;;;;;5077695;28;20476;-79
2021/12/30 02:24:06;;;;;;;12.70;3.60;;;;;;;;;;5072138;28;20495;-78
2021/12/30 02:26:34;;;;;;;11.93;3.40;;;;;;;;;;5080027;28;20481;-78
2021/12/30 02:29:01;;;;;;;13.60;3.37;;;;;;;;;;5072268;28;20454;-78
2021/12/30 02:31:30;;;;;;;14.73;4.03;;;;;;;;;;5089713;28;20455;-77
2021/12/30 02:33:58;;;;;;;7.43;3.33;;;;;;;;;;5072180;28;20446;-76
2021/12/30 02:36:26;;;;;;;17.13;3.80;;;;;;;;;;5086920;28;20448;-78
2021/12/30 02:38:54;;;;;;;16.43;4.00;;;;;;;;;;5078223;28;20447;-78
2021/12/30 02:41:22;;;;;;;12.77;3.80;;;;;;;;;;5079246;28;21016;-78
2021/12/30 02:43:50;;;;;;;10.10;3.77;;;;;;;;;;5090626;28;20570;-78
2021/12/30 02:46:17;;;;;;;12.83;4.33;;;;;;;;;;5090155;28;20458;-78
2021/12/30 02:48:44;;;;;;;10.90;4.07;;;;;;;;;;5090653;28;20449;-78
2021/12/30 02:51:12;;;;;;;8.87;3.57;;;;;;;;;;5089399;28;20475;-78
2021/12/30 02:53:40;;;;;;;11.70;4.10;;;;;;;;;;5084922;28;20577;-78
2021/12/30 02:56:08;;;;;;;14.90;4.23;;;;;;;;;;5077525;28;20448;-78
2021/12/30 02:58:36;;;;;;;16.40;3.80;;;;;;;;;;5053964;28;20454;-78
2021/12/30 03:01:06;;;;;;;8.40;3.77;;;;;;;;;;5069967;28;20472;-78
2021/12/30 03:03:33;;;;;;;12.33;3.77;;;;;;;;;;5069247;28;20468;-78
2021/12/30 03:06:02;;;;;;;17.37;4.00;;;;;;;;;;5068051;28;20466;-78
2021/12/30 03:08:30;;;;;;;15.27;4.20;;;;;;;;;;5088001;28;20817;-78
2021/12/30 03:10:57;;;;;;;10.83;3.90;;;;;;;;;;5060297;28;20484;-78
2021/12/30 03:13:30;;;;;;;14.67;4.03;;;;;;;;;;5081340;28;20477;-78
2021/12/30 03:15:59;;;;;;;17.47;3.70;;;;;;;;;;5091013;28;20446;-78
2021/12/30 03:18:26;;;;;;;10.10;4.40;;;;;;;;;;5071055;28;20479;-78
2021/12/30 03:20:54;;;;;;;7.10;4.13;;;;;;;;;;5090696;28;20826;-78
2021/12/30 03:23:21;;;;;;;14.20;4.47;;;;;;;;;;5088778;28;20479;-78
2021/12/30 03:25:48;;;;;;;11.00;4.67;;;;;;;;;;5088265;28;20459;-78
2021/12/30 03:28:16;;;;;;;14.53;4.10;;;;;;;;;;5082282;28;20464;-78
2021/12/30 03:30:44;;;;;;;10.97;3.87;;;;;;;;;;5083924;28;20483;-78
2021/12/30 03:33:12;;;;;;;11.77;3.90;;;;;;;;;;5058774;28;20424;-79
2021/12/30 03:35:39;;;;;;;12.40;3.80;;;;;;;;;;5079255;28;20454;-78
2021/12/30 03:38:06;;;;;;;10.60;5.13;;;;;;;;;;5089313;28;20577;-79
2021/12/30 03:40:34;;;;;;;8.80;4.00;;;;;;;;;;5089129;28;20960;-78
2021/12/30 03:43:01;;;;;;;8.40;3.47;;;;;;;;;;5089166;28;20947;-78
2021/12/30 03:45:28;;;;;;;11.97;3.77;;;;;;;;;;5080068;28;20459;-77
2021/12/30 03:47:57;;;;;;;8.13;3.30;;;;;;;;;;5091661;28;20447;-79
2021/12/30 03:50:27;;;;;;;8.10;3.50;;;;;;;;;;5072325;28;20469;-78
2021/12/30 03:52:55;;;;;;;6.67;3.30;;;;;;;;;;5092011;28;20469;-77
2021/12/30 03:55:23;;;;;;;10.70;3.50;;;;;;;;;;5076809;28;20439;-78
2021/12/30 03:57:51;;;;;;;4.90;3.00;;;;;;;;;;5057743;28;20448;-77
2021/12/30 04:00:19;;;;;;;7.07;3.30;;;;;;;;;;5082407;28;20475;-78
2021/12/30 04:02:46;;;;;;;10.20;3.20;;;;;;;;;;5087804;28;20459;-78
2021/12/30 04:05:15;;;;;;;5.83;3.40;;;;;;;;;;5090008;28;20479;-77
2021/12/30 04:07:42;;;;;;;6.73;3.77;;;;;;;;;;5089034;28;20443;-79
2021/12/30 04:10:11;;;;;;;8.93;3.70;;;;;;;;;;5080126;28;20490;-78
2021/12/30 04:12:39;;;;;;;17.57;5.00;;;;;;;;;;5058672;28;20429;-78
2021/12/30 04:15:07;;;;;;;17.07;4.17;;;;;;;;;;5087389;28;20439;-78
2021/12/30 04:17:34;;;;;;;9.73;4.80;;;;;;;;;;5070921;28;20490;-77
2021/12/30 04:20:01;;;;;;;11.97;4.00;;;;;;;;;;5089993;28;20465;-77
2021/12/30 04:22:29;;;;;;;11.23;4.10;;;;;;;;;;5090404;28;20443;-77
2021/12/30 04:24:58;;;;;;;5.40;3.83;;;;;;;;;;5087985;28;20967;-78
2021/12/30 04:27:25;;;;;;;10.53;4.80;;;;;;;;;;5087474;28;20451;-78
2021/12/30 04:29:52;;;;;;;8.27;4.47;;;;;;;;;;5090355;28;20479;-78
2021/12/30 04:32:19;;;;;;;7.33;4.00;;;;;;;;;;5080744;28;20454;-77
2021/12/30 04:34:47;;;;;;;14.70;4.60;;;;;;;;;;5076688;28;20431;-79
2021/12/30 04:37:14;;;;;;;13.73;4.37;;;;;;;;;;5069026;28;20952;-76
2021/12/30 04:39:42;;;;;;;13.70;4.50;;;;;;;;;;5078216;28;20484;-78
2021/12/30 04:42:09;;;;;;;9.17;3.83;;;;;;;;;;5089656;28;20810;-78
2021/12/30 04:44:37;;;;;;;13.07;4.20;;;;;;;;;;5089659;28;20836;-80
2021/12/30 04:47:05;;;;;;;9.93;4.00;;;;;;;;;;5089257;28;20467;-79
2021/12/30 04:49:32;;;;;;;13.20;4.60;;;;;;;;;;5089907;28;20487;-78
2021/12/30 04:52:00;;;;;;;12.30;4.40;;;;;;;;;;5088343;28;20440;-79
2021/12/30 04:54:27;;;;;;;14.67;4.30;;;;;;;;;;5076482;28;20451;-77
2021/12/30 04:56:55;;;;;;;8.07;4.50;;;;;;;;;;5082060;28;20447;-77
2021/12/30 04:59:22;;;;;;;7.83;4.20;;;;;;;;;;5089273;28;20955;-78
2021/12/30 05:01:50;;;;;;;6.00;3.57;;;;;;;;;;5089949;28;20451;-80
2021/12/30 05:04:17;;;;;;;14.67;4.37;;;;;;;;;;5092652;28;20586;-79
2021/12/30 05:06:44;;;;;;;8.43;3.60;;;;;;;;;;5080391;28;20462;-79
2021/12/30 05:09:11;;;;;;;10.03;4.10;;;;;;;;;;5088774;28;20458;-79
2021/12/30 05:11:41;;;;;;;7.67;3.67;;;;;;;;;;5062552;28;20463;-79
2021/12/30 05:14:10;;;;;;;14.87;4.13;;;;;;;;;;5076526;28;20476;-79
2021/12/30 05:16:37;;;;;;;8.00;3.63;;;;;;;;;;5055406;28;20440;-78
2021/12/30 05:19:05;;;;;;;5.00;3.20;;;;;;;;;;5071963;28;21006;-78
2021/12/30 05:21:32;;;;;;;6.20;3.53;;;;;;;;;;5072944;28;20785;-78
2021/12/30 05:24:00;;;;;;;4.00;2.60;;;;;;;;;;5081480;28;20636;-78
2021/12/30 05:26:28;;;;;;;4.43;2.47;;;;;;;;;;5079997;28;20819;-78
2021/12/30 05:28:56;;;;;;;2.47;1.90;;;;;;;;;;5078068;28;20467;-78
2021/12/30 05:31:24;;;;;;;3.40;1.60;;;;;;;;;;5071978;28;20984;-79
2021/12/30 05:33:51;;;;;;;6.17;1.80;;;;;;;;;;5079360;28;20467;-79
2021/12/30 05:36:19;;;;;;;1.57;1.47;;;;;;;;;;5091163;28;20466;-80
2021/12/30 05:38:46;;;;;;;2.40;1.30;;;;;;;;;;5089887;28;20459;-78
2021/12/30 05:41:13;;;;;;;5.40;1.70;;;;;;;;;;5083813;28;20484;-78
2021/12/30 05:43:40;;;;;;;1.43;0.93;;;;;;;;;;5078121;28;20441;-78
2021/12/30 05:46:08;;;;;;;1.80;1.40;;;;;;;;;;5072426;28;20451;-78
2021/12/30 05:48:36;;;;;;;1.40;1.13;;;;;;;;;;5071236;28;20796;-79
2021/12/30 05:51:03;;;;;;;1.30;1.20;;;;;;;;;;5072039;28;20463;-79
2021/12/30 05:53:31;;;;;;;2.43;1.30;;;;;;;;;;5078786;28;20466;-78
2021/12/30 05:55:58;;;;;;;2.10;1.37;;;;;;;;;;5091302;28;20448;-78
2021/12/30 05:58:26;;;;;;;1.73;1.10;;;;;;;;;;5061433;28;20452;-79
2021/12/30 06:00:53;;;;;;;1.20;1.10;;;;;;;;;;5082153;28;20467;-78
2021/12/30 06:05:48;;;;;;;1.73;0.90;;;;;;;;;;5090990;28;20639;-79
2021/12/30 06:08:15;;;;;;;1.67;0.90;;;;;;;;;;5090450;28;20193;-78
2021/12/30 06:10:43;;;;;;;1.03;0.90;;;;;;;;;;5088464;28;20475;-79
2021/12/30 06:13:10;;;;;;;1.17;1.07;;;;;;;;;;5090119;28;21118;-78
2021/12/30 06:15:37;;;;;;;1.10;0.83;;;;;;;;;;5078165;28;20957;-77
2021/12/30 06:18:05;;;;;;;2.60;1.10;;;;;;;;;;5053898;28;20825;-78
2021/12/30 06:20:32;;;;;;;1.00;0.90;;;;;;;;;;5050698;28;20467;-78
2021/12/30 06:23:01;;;;;;;1.30;1.10;;;;;;;;;;5051002;28;20822;-78
2021/12/30 06:25:28;;;;;;;2.43;1.00;;;;;;;;;;5051335;28;20496;-79
2021/12/30 06:30:37;;;;;;;3.20;1.20;;;;;;;;;;5032089;28;20555;-78
2021/12/30 06:33:05;;;;;;;1.23;1.13;;;;;;;;;;5035220;28;20957;-78
2021/12/30 06:35:34;;;;;;;1.43;1.20;;;;;;;;;;5029392;28;20448;-78
2021/12/30 06:38:03;;;;;;;1.50;1.30;;;;;;;;;;5027696;28;20838;-79
2021/12/30 06:40:30;;;;;;;1.70;1.40;;;;;;;;;;5027333;28;21014;-79
2021/12/30 06:42:57;;;;;;;1.73;1.63;;;;;;;;;;5046622;28;20469;-79
2021/12/30 06:45:24;;;;;;;1.50;1.20;;;;;;;;;;5046314;28;20494;-78
2021/12/30 06:47:52;;;;;;;1.70;1.30;;;;;;;;;;5041941;28;20451;-78
2021/12/30 06:50:22;;;;;;;1.43;1.33;;;;;;;;;;5036098;28;21204;-79
2021/12/30 06:52:49;;;;;;;1.40;1.30;;;;;;;;;;5040349;28;20977;-79
2021/12/30 06:55:18;;;;;;;1.60;1.50;;;;;;;;;;5031511;28;20547;-79
2021/12/30 06:57:45;;;;;;;1.87;1.67;;;;;;;;;;5028164;28;20453;-79
2021/12/30 07:00:13;;;;;;;2.50;1.60;;;;;;;;;;5039513;28;20504;-79
2021/12/30 07:02:42;;;;;;;1.70;1.60;;;;;;;;;;5061754;28;20462;-78
2021/12/30 07:05:09;;;;;;;1.80;1.70;;;;;;;;;;5050428;28;20485;-80
2021/12/30 07:07:36;;;;;;;2.03;1.93;;;;;;;;;;5052507;28;20446;-79
2021/12/30 07:10:04;;;;;;;6.90;2.10;;;;;;;;;;5060493;28;20486;-79
2021/12/30 07:12:33;;;;;;;1.97;1.80;;;;;;;;;;5056622;28;20457;-79
2021/12/30 07:15:00;;;;;;;4.57;1.80;;;;;;;;;;5061150;28;20454;-78
2021/12/30 07:17:30;;;;;;;2.17;2.00;;;;;;;;;;5054953;28;20510;-78
2021/12/30 07:19:57;;;;;;;3.00;2.00;;;;;;;;;;5070446;28;20903;-79
2021/12/30 07:22:24;;;;;;;2.40;2.03;;;;;;;;;;5074042;28;20460;-77
2021/12/30 07:24:51;;;;;;;2.30;2.10;;;;;;;;;;5087765;28;20483;-78
2021/12/30 07:27:18;;;;;;;2.10;1.93;;;;;;;;;;5089360;28;20460;-78
2021/12/30 07:29:47;;;;;;;2.67;2.47;;;;;;;;;;5090416;28;20473;-77
2021/12/30 07:32:14;;;;;;;4.10;3.00;;;;;;;;;;5081629;28;20449;-78
2021/12/30 07:34:41;;;;;;;2.80;2.60;;;;;;;;;;5075628;28;20467;-79
2021/12/30 07:37:08;;;;;;;2.77;2.57;;;;;;;;;;5082193;28;20472;-78
2021/12/30 07:39:35;;;;;;;3.83;3.47;;;;;;;;;;5075947;28;20988;-78
2021/12/30 07:42:03;;;;;;;2.53;2.33;;;;;;;;;;5083627;28;20458;-80
2021/12/30 07:44:30;;;;;;;2.50;2.23;;;;;;;;;;5076903;28;20488;-80
2021/12/30 07:46:58;;;;;;;3.30;2.83;;;;;;;;;;5085519;28;20452;-79
2021/12/30 07:49:26;;;;;;;2.60;2.40;;;;;;;;;;5088969;28;20440;-81
2021/12/30 07:51:53;;;;;;;3.80;2.60;;;;;;;;;;5072688;28;20452;-78
2021/12/30 07:54:20;;;;;;;3.23;2.40;;;;;;;;;;5091515;28;20446;-80
2021/12/30 07:56:47;;;;;;;2.40;2.20;;;;;;;;;;5075155;28;20840;-84
2021/12/30 07:59:14;;;;;;;3.10;2.33;;;;;;;;;;5073410;28;20459;-84
2021/12/30 08:01:41;;;;;;;2.97;2.67;;;;;;;;;;5081949;28;20468;-83
2021/12/30 08:04:10;;;;;;;4.23;3.83;;;;;;;;;;5069885;28;20437;-81
2021/12/30 08:06:37;;;;;;;2.80;2.60;;;;;;;;;;5068894;28;20449;-80
2021/12/30 08:09:04;;;;;;;6.80;3.77;;;;;;;;;;5085653;28;20455;-83
2021/12/30 08:11:31;;;;;;;3.07;2.83;;;;;;;;;;5090180;28;20855;-84
2021/12/30 08:13:59;;;;;;;5.00;3.87;;;;;;;;;;5077550;28;20450;-84
2021/12/30 08:16:26;;;;;;;3.33;2.93;;;;;;;;;;5074239;28;21024;-82
2021/12/30 08:18:54;;;;;;;2.63;2.43;;;;;;;;;;5068395;28;20473;-83
2021/12/30 08:21:23;;;;;;;2.67;2.47;;;;;;;;;;5049866;28;21183;-82
2021/12/30 08:23:51;;;;;;;4.27;2.60;;;;;;;;;;5085952;28;20468;-80
2021/12/30 08:26:19;;;;;;;2.83;2.63;;;;;;;;;;5076087;28;20474;-81
2021/12/30 08:28:46;;;;;;;2.47;2.20;;;;;;;;;;5080205;28;21193;-81
2021/12/30 08:31:14;;;;;;;3.07;2.30;;;;;;;;;;5070984;28;20468;-81
2021/12/30 08:33:41;;;;;;;2.60;2.40;;;;;;;;;;5082720;28;20452;-81
2021/12/30 08:36:08;;;;;;;4.63;3.33;;;;;;;;;;5063228;28;20464;-79
2021/12/30 08:38:37;;;;;;;3.60;3.23;;;;;;;;;;5077752;28;20475;-85
2021/12/30 08:41:04;;;;;;;4.63;2.67;;;;;;;;;;5074405;28;20486;-84
2021/12/30 08:43:31;;;;;;;2.40;2.20;;;;;;;;;;5072659;28;20469;-84
2021/12/30 08:45:58;;;;;;;2.43;2.23;;;;;;;;;;5077490;28;20482;-86
2021/12/30 08:48:27;;;;;;;2.43;2.23;;;;;;;;;;5082048;28;20473;-84
2021/12/30 08:50:56;;;;;;;2.43;2.23;;;;;;;;;;5091045;28;20516;-83
2021/12/30 08:53:25;;;;;;;2.40;2.10;;;;;;;;;;5089019;28;20517;-81
2021/12/30 08:55:54;;;;;;;2.50;2.30;;;;;;;;;;5054901;28;20437;-83
2021/12/30 08:58:21;;;;;;;3.03;2.33;;;;;;;;;;5087600;28;20464;-78
2021/12/30 09:00:49;;;;;;;2.53;2.30;;;;;;;;;;5085866;28;20965;-83
2021/12/30 09:03:17;;;;;;;2.40;2.20;;;;;;;;;;5079291;28;20449;-82
2021/12/30 09:05:44;;;;;;;2.43;2.23;;;;;;;;;;5071981;28;21032;-85
2021/12/30 09:08:12;;;;;;;2.63;2.43;;;;;;;;;;5075445;28;20440;-86
2021/12/30 09:10:40;;;;;;;3.73;3.43;;;;;;;;;;5091647;28;20476;-80
2021/12/30 09:13:09;;;;;;;3.93;2.77;;;;;;;;;;5091609;28;20991;-79
2021/12/30 09:15:36;;;;;;;4.77;2.53;;;;;;;;;;5092418;28;20471;-81
2021/12/30 09:18:05;;;;;;;3.80;3.43;;;;;;;;;;5084300;28;20494;-82
2021/12/30 09:20:32;;;;;;;3.57;3.27;;;;;;;;;;5078719;28;20557;-80
2021/12/30 09:23:00;;;;;;;3.03;1.97;;;;;;;;;;5071836;28;20465;-85
2021/12/30 09:25:28;;;;;;;2.47;2.27;;;;;;;;;;5083162;28;21713;-81
2021/12/30 09:27:55;;;;;;;5.80;5.20;;;;;;;;;;5090971;28;20454;-80
2021/12/30 09:30:25;;;;;;;4.10;3.07;;;;;;;;;;5063619;28;20463;-81
2021/12/30 09:32:53;;;;;;;2.83;2.63;;;;;;;;;;5081067;28;20472;-85
2021/12/30 09:35:21;;;;;;;4.50;2.43;;;;;;;;;;5060862;28;20438;-83
2021/12/30 09:37:48;;;;;;;3.60;3.30;;;;;;;;;;5084208;28;20448;-85
2021/12/30 09:40:16;;;;;;;3.87;3.47;;;;;;;;;;5090598;28;20466;-86
2021/12/30 09:42:45;;;;;;;4.13;3.53;;;;;;;;;;5090599;28;20443;-79
2021/12/30 09:45:12;;;;;;;5.10;4.60;;;;;;;;;;5074709;28;20478;-76
2021/12/30 09:47:44;;;;;;;6.20;5.60;;;;;;;;;;5085069;28;20773;-78
2021/12/30 09:50:12;;;;;;;4.57;3.30;;;;;;;;;;5072589;28;20473;-82
2021/12/30 09:52:39;;;;;;;5.03;3.20;;;;;;;;;;5086545;28;20469;-82
2021/12/30 09:55:07;;;;;;;2.73;2.53;;;;;;;;;;5092854;28;20446;-83
2021/12/30 09:57:34;;;;;;;2.40;2.03;;;;;;;;;;5078340;28;20888;-80
2021/12/30 10:00:02;;;;;;;2.23;1.70;;;;;;;;;;5076683;28;20455;-82
2021/12/30 10:02:30;;;;;;;1.63;1.43;;;;;;;;;;5068683;28;20892;-84
2021/12/30 10:05:06;;;;;;;3.57;3.27;;;;;;;;;;5070590;28;20449;-81
2021/12/30 10:07:33;;;;;;;4.70;4.17;;;;;;;;;;5083146;28;20458;-81
2021/12/30 10:10:03;;;;;;;1.93;1.77;;;;;;;;;;5073271;28;20770;-80
2021/12/30 10:12:34;;;;;;;3.00;2.00;;;;;;;;;;5091151;28;20789;-83
2021/12/30 10:15:01;;;;;;;2.43;2.00;;;;;;;;;;5092334;28;20445;-81
2021/12/30 10:17:29;;;;;;;3.40;2.20;;;;;;;;;;5074682;28;20488;-77
2021/12/30 10:19:56;;;;;;;3.23;2.70;;;;;;;;;;5077560;28;20980;-81
2021/12/30 10:22:27;;;;;;;4.83;2.03;;;;;;;;;;5076007;28;20455;-79
2021/12/30 10:24:54;;;;;;;2.10;1.30;;;;;;;;;;5059716;28;20459;-79
2021/12/30 10:27:24;;;;;;;1.43;1.33;;;;;;;;;;5088852;28;20977;-78
2021/12/30 10:30:05;;;;;;;1.50;1.40;;;;;;;;;;5071157;28;20464;-80
2021/12/30 10:32:32;;;;;;;2.07;1.53;;;;;;;;;;5087632;28;20462;-81
2021/12/30 10:35:04;;;;;;;1.30;1.17;;;;;;;;;;5090548;28;20451;-79
2021/12/30 10:37:33;;;;;;;3.53;1.57;;;;;;;;;;5078639;28;20452;-81
2021/12/30 10:40:00;;;;;;;1.87;1.43;;;;;;;;;;5062225;28;20482;-80
2021/12/30 10:42:30;;;;;;;2.50;1.57;;;;;;;;;;5086542;28;20446;-79
2021/12/30 10:44:58;;;;;;;1.20;1.10;;;;;;;;;;5072734;28;20451;-79
2021/12/30 10:47:29;;;;;;;3.40;1.40;;;;;;;;;;5063224;28;20458;-81
2021/12/30 10:49:58;;;;;;;1.50;1.40;;;;;;;;;;5073082;28;20823;-81
2021/12/30 10:52:25;;;;;;;1.30;1.20;;;;;;;;;;5058914;28;20460;-82
2021/12/30 10:54:54;;;;;;;1.67;1.30;;;;;;;;;;5078305;28;20440;-83
2021/12/30 10:57:21;;;;;;;1.30;1.20;;;;;;;;;;5052188;28;20444;-80
2021/12/30 10:59:49;;;;;;;1.43;1.30;;;;;;;;;;5072292;28;20464;-85
2021/12/30 11:02:18;;;;;;;1.77;1.30;;;;;;;;;;5080219;28;20478;-83
2021/12/30 11:04:46;;;;;;;1.80;1.30;;;;;;;;;;5078690;28;20551;-85
2021/12/30 11:07:14;;;;;;;1.40;1.30;;;;;;;;;;5081207;28;20484;-80
2021/12/30 11:09:47;;;;;;;1.57;1.47;;;;;;;;;;5061610;28;20476;-82
2021/12/30 11:12:15;;;;;;;2.23;1.40;;;;;;;;;;5058923;28;20448;-82
2021/12/30 11:14:43;;;;;;;1.70;1.60;;;;;;;;;;5081545;28;20546;-82
2021/12/30 11:17:14;;;;;;;2.10;1.90;;;;;;;;;;5083386;28;20506;-79
2021/12/30 11:19:43;;;;;;;2.93;2.27;;;;;;;;;;5081112;28;20502;-80
2021/12/30 11:22:11;;;;;;;1.93;1.60;;;;;;;;;;5070312;28;20452;-82
2021/12/30 11:24:39;;;;;;;2.83;2.30;;;;;;;;;;5067129;28;20988;-80
2021/12/30 11:27:08;;;;;;;3.43;2.10;;;;;;;;;;5074692;28;20476;-82
2021/12/30 11:29:37;;;;;;;2.73;2.47;;;;;;;;;;5076588;28;20463;-82
2021/12/30 11:32:05;;;;;;;3.00;2.40;;;;;;;;;;5081335;28;20470;-77
2021/12/30 11:34:32;;;;;;;2.40;1.93;;;;;;;;;;5082643;28;20455;-79
2021/12/30 11:36:59;;;;;;;3.43;2.07;;;;;;;;;;5071978;28;20474;-78
2021/12/30 11:39:27;;;;;;;5.00;2.33;;;;;;;;;;5074864;28;20448;-78
2021/12/30 11:41:55;;;;;;;3.60;3.10;;;;;;;;;;5076386;28;20471;-76
2021/12/30 11:44:37;;;;;;;3.93;3.13;;;;;;;;;;5075825;28;20463;-75
2021/12/30 11:47:07;;;;;;;4.13;2.20;;;;;;;;;;5057120;28;21013;-77
2021/12/30 11:49:49;;;;;;;2.57;2.30;;;;;;;;;;5056529;28;20464;-77
2021/12/30 11:52:43;;;;;;;4.30;3.20;;;;;;;;;;5082821;28;20470;-77
2021/12/30 11:55:25;;;;;;;7.13;5.10;;;;;;;;;;5068607;28;20463;-77
2021/12/30 11:57:54;;;;;;;3.57;3.23;;;;;;;;;;5070913;28;20431;-77
2021/12/30 12:00:36;;;;;;;8.03;7.23;;;;;;;;;;5089842;28;20460;-81
2021/12/30 12:03:23;;;;;;;5.07;3.87;;;;;;;;;;5059896;28;20447;-78
2021/12/30 12:05:53;;;;;;;4.00;2.20;;;;;;;;;;5061415;28;20481;-78
2021/12/30 12:08:20;;;;;;;3.70;3.33;;;;;;;;;;5077515;28;20463;-80
2021/12/30 12:11:07;;;;;;;3.53;2.00;;;;;;;;;;5088455;28;20459;-77
2021/12/30 12:13:35;;;;;;;3.33;2.27;;;;;;;;;;5063459;28;20459;-79
2021/12/30 12:16:02;;;;;;;4.07;3.10;;;;;;;;;;5093729;28;20946;-77
2021/12/30 12:18:30;;;;;;;4.93;2.10;;;;;;;;;;5086611;28;21010;-77
2021/12/30 12:20:59;;;;;;;2.20;1.97;;;;;;;;;;5095105;28;20459;-78
2021/12/30 12:23:34;;;;;;;2.43;1.60;;;;;;;;;;5094234;28;20466;-77
2021/12/30 12:26:09;;;;;;;4.03;2.07;;;;;;;;;;5093260;28;20480;-77
2021/12/30 12:28:37;;;;;;;2.67;1.83;;;;;;;;;;5061733;28;20559;-77
2021/12/30 12:31:06;;;;;;;3.03;2.00;;;;;;;;;;5056952;28;21028;-77
2021/12/30 12:33:34;;;;;;;2.60;2.17;;;;;;;;;;5058991;28;20550;-78
2021/12/30 12:36:04;;;;;;;2.53;2.27;;;;;;;;;;5091971;28;20446;-78
2021/12/30 12:38:40;;;;;;;5.47;2.50;;;;;;;;;;5067187;28;20532;-80
2021/12/30 12:41:22;;;;;;;3.57;2.23;;;;;;;;;;5086891;28;20464;-79
2021/12/30 12:43:52;;;;;;;1.80;1.70;;;;;;;;;;5063883;28;20458;-78
2021/12/30 12:46:37;;;;;;;4.50;1.83;;;;;;;;;;5076588;28;20890;-77
2021/12/30 12:49:06;;;;;;;4.50;1.70;;;;;;;;;;5079511;28;20443;-81
2021/12/30 12:51:35;;;;;;;2.20;1.83;;;;;;;;;;5092037;28;20823;-78
2021/12/30 12:54:05;;;;;;;3.37;2.50;;;;;;;;;;5073379;28;20439;-77
2021/12/30 12:56:35;;;;;;;3.27;1.70;;;;;;;;;;5090624;28;20447;-77
2021/12/30 12:59:05;;;;;;;6.93;3.57;;;;;;;;;;5087780;28;20523;-77
2021/12/30 13:01:32;;;;;;;5.20;2.87;;;;;;;;;;5080183;28;20709;-77
2021/12/30 13:04:01;;;;;;;4.43;3.00;;;;;;;;;;5084963;28;20474;-77
2021/12/30 13:06:29;;;;;;;7.33;2.90;;;;;;;;;;5092965;28;20475;-77
2021/12/30 13:09:03;;;;;;;6.53;3.47;;;;;;;;;;5072935;28;20467;-76
2021/12/30 13:11:31;;;;;;;3.70;2.40;;;;;;;;;;5092028;28;20467;-78
2021/12/30 13:13:59;;;;;;;3.60;2.17;;;;;;;;;;5090174;28;20474;-78
2021/12/30 13:16:27;;;;;;;3.50;1.90;;;;;;;;;;5084506;28;20916;-78
2021/12/30 13:19:03;;;;;;;6.13;2.87;;;;;;;;;;5079419;28;20480;-78
2021/12/30 13:21:38;;;;;;;5.13;1.97;;;;;;;;;;5070956;28;20460;-77
2021/12/30 13:24:07;;;;;;;7.93;2.67;;;;;;;;;;5071784;28;20451;-77
2021/12/30 13:26:38;;;;;;;5.30;2.33;;;;;;;;;;5089190;28;20481;-77
2021/12/30 13:29:05;;;;;;;5.13;2.70;;;;;;;;;;5090493;28;20455;-77
2021/12/30 13:31:33;;;;;;;5.57;2.77;;;;;;;;;;5090844;28;20483;-77
2021/12/30 13:34:01;;;;;;;7.80;3.60;;;;;;;;;;5077418;28;20507;-77
2021/12/30 13:36:28;;;;;;;3.60;2.20;;;;;;;;;;5083271;28;20466;-78
2021/12/30 13:39:09;;;;;;;1.93;1.57;;;;;;;;;;5088417;28;20451;-77
2021/12/30 13:41:38;;;;;;;4.80;2.30;;;;;;;;;;5071983;28;20479;-80
2021/12/30 13:44:08;;;;;;;2.07;1.57;;;;;;;;;;5091340;28;20450;-79
2021/12/30 13:46:35;;;;;;;2.43;1.80;;;;;;;;;;5091296;28;21006;-77
2021/12/30 13:49:03;;;;;;;3.13;2.00;;;;;;;;;;5081648;28;20537;-77
2021/12/30 13:51:31;;;;;;;3.30;1.77;;;;;;;;;;5079443;28;20836;-77
2021/12/30 13:53:59;;;;;;;3.63;2.00;;;;;;;;;;5071258;28;20547;-77
2021/12/30 13:56:26;;;;;;;2.83;2.13;;;;;;;;;;5078028;28;21044;-77
2021/12/30 13:58:56;;;;;;;3.43;1.80;;;;;;;;;;5074260;28;20443;-77
2021/12/30 14:01:24;;;;;;;2.90;2.00;;;;;;;;;;5091703;28;20475;-78
2021/12/30 14:03:52;;;;;;;5.20;2.07;;;;;;;;;;5071509;28;20471;-78
2021/12/30 14:06:21;;;;;;;2.87;2.20;;;;;;;;;;5077412;28;20796;-79
2021/12/30 14:08:50;;;;;;;7.03;2.70;;;;;;;;;;5064524;28;20471;-77
2021/12/30 14:11:17;;;;;;;5.23;2.47;;;;;;;;;;5077857;28;20463;-76
2021/12/30 14:13:47;;;;;;;3.17;2.27;;;;;;;;;;5090854;28;20443;-78
2021/12/30 14:16:19;;;;;;;6.70;3.07;;;;;;;;;;5073252;28;20459;-78
2021/12/30 14:18:46;;;;;;;9.00;3.27;;;;;;;;;;5090009;28;20479;-77
2021/12/30 14:21:13;;;;;;;5.73;3.27;;;;;;;;;;5089965;28;20816;-77
2021/12/30 14:23:41;;;;;;;5.00;2.53;;;;;;;;;;5085897;28;20460;-77
2021/12/30 14:26:09;;;;;;;10.63;2.87;;;;;;;;;;5060587;28;20438;-78
2021/12/30 14:28:36;;;;;;;4.50;2.80;;;;;;;;;;5081738;28;20482;-77
2021/12/30 14:33:32;;;;;;;3.00;2.27;;;;;;;;;;5072888;28;20470;-77
2021/12/30 14:36:09;;;;;;;2.40;1.90;;;;;;;;;;5069624;28;20197;-77
2021/12/30 14:38:36;;;;;;;2.10;1.50;;;;;;;;;;5081797;28;20470;-77
2021/12/30 14:41:18;;;;;;;2.70;1.50;;;;;;;;;;5075486;28;20475;-76
2021/12/30 14:44:00;;;;;;;3.63;2.03;;;;;;;;;;5058619;28;20443;-78
2021/12/30 14:46:27;;;;;;;4.90;1.60;;;;;;;;;;5051715;28;20553;-76
2021/12/30 14:49:00;;;;;;;2.23;1.60;;;;;;;;;;5083611;28;20463;-76
2021/12/30 14:51:33;;;;;;;2.63;1.70;;;;;;;;;;5070347;28;20467;-76
2021/12/30 14:54:00;;;;;;;4.87;2.67;;;;;;;;;;5070118;28;20470;-76